createdAt,value
2023-04-07T00:00:31.328Z,100.00
2023-04-07T00:02:59.661Z,100.00
2023-04-07T00:05:27.547Z,100.00
2023-04-07T00:07:56.802Z,100.00
2023-04-07T00:10:25.399Z,100.00
2023-04-07T00:12:53.250Z,100.00
2023-04-07T00:15:21.068Z,100.00
2023-04-07T00:17:50.505Z,100.00
2023-04-07T00:20:18.472Z,100.00
2023-04-07T00:22:46.302Z,100.00
2023-04-07T00:25:14.089Z,100.00
2023-04-07T00:27:41.834Z,100.00
2023-04-07T00:30:10.150Z,100.00
2023-04-07T00:32:37.906Z,100.00
2023-04-07T00:35:07.914Z,100.00
2023-04-07T00:37:35.673Z,100.00
2023-04-07T00:40:04.183Z,100.00
2023-04-07T00:42:31.948Z,100.00
2023-04-07T00:44:59.664Z,100.00
2023-04-07T00:47:27.641Z,100.00
2023-04-07T00:49:55.368Z,100.00
2023-04-07T00:52:30.028Z,100.00
2023-04-07T00:54:57.775Z,100.00
2023-04-07T00:57:25.516Z,100.00
2023-04-07T00:59:54.418Z,100.00
2023-04-07T01:02:28.334Z,100.00
2023-04-07T01:05:05.581Z,100.00
2023-04-07T01:07:41.227Z,100.00
2023-04-07T01:10:13.445Z,100.00
2023-04-07T01:12:48.767Z,100.00
2023-04-07T01:15:19.752Z,100.00
2023-04-07T01:17:51.718Z,100.00
2023-04-07T01:20:22.671Z,100.00
2023-04-07T01:22:55.896Z,100.00
2023-04-07T01:25:33.919Z,100.00
2023-04-07T01:28:32.664Z,100.00
2023-04-07T01:31:04.720Z,100.00
2023-04-07T01:33:36.657Z,100.00
2023-04-07T01:36:07.706Z,100.00
2023-04-07T01:38:36.762Z,100.00
2023-04-07T01:41:05.573Z,100.00
2023-04-07T01:43:33.921Z,100.00
2023-04-07T01:46:04.930Z,100.00
2023-04-07T01:48:33.444Z,100.00
2023-04-07T01:51:02.003Z,100.00
2023-04-07T01:53:30.997Z,100.00
2023-04-07T01:55:58.735Z,100.00
2023-04-07T01:58:27.214Z,100.00
2023-04-07T02:00:55.031Z,100.00
2023-04-07T02:03:29.097Z,100.00
2023-04-07T02:06:01.279Z,100.00
2023-04-07T02:08:32.351Z,100.00
2023-04-07T02:11:03.743Z,100.00
2023-04-07T02:13:32.104Z,100.00
2023-04-07T02:16:01.596Z,100.00
2023-04-07T02:18:32.887Z,100.00
2023-04-07T02:21:02.363Z,100.00
2023-04-07T02:23:30.352Z,100.00
2023-04-07T02:25:58.982Z,100.00
2023-04-07T02:28:26.772Z,100.00
2023-04-07T02:30:54.497Z,100.00
2023-04-07T02:33:22.251Z,100.00
2023-04-07T02:35:51.503Z,100.00
2023-04-07T02:38:19.275Z,100.00
2023-04-07T02:40:46.988Z,100.00
2023-04-07T02:43:15.554Z,100.00
2023-04-07T02:45:43.267Z,100.00
2023-04-07T02:48:11.088Z,100.00
2023-04-07T02:50:38.874Z,100.00
2023-04-07T02:53:07.967Z,100.00
2023-04-07T02:55:35.674Z,100.00
2023-04-07T02:58:03.388Z,100.00
2023-04-07T03:00:31.255Z,100.00
2023-04-07T03:02:59.000Z,100.00
2023-04-07T03:05:27.170Z,100.00
2023-04-07T03:07:54.911Z,100.00
2023-04-07T03:10:24.054Z,100.00
2023-04-07T03:12:51.805Z,100.00
2023-04-07T03:15:19.518Z,100.00
2023-04-07T03:17:47.278Z,100.00
2023-04-07T03:20:15.074Z,100.00
2023-04-07T03:22:42.879Z,100.00
2023-04-07T03:25:11.315Z,100.00
2023-04-07T03:27:40.679Z,100.00
2023-04-07T03:30:10.468Z,100.00
2023-04-07T03:32:38.208Z,100.00
2023-04-07T03:35:06.500Z,100.00
2023-04-07T03:37:34.265Z,100.00
2023-04-07T03:40:02.032Z,100.00
2023-04-07T03:42:29.789Z,100.00
2023-04-07T03:44:58.866Z,100.00
2023-04-07T03:47:26.707Z,100.00
2023-04-07T03:49:54.478Z,100.00
2023-04-07T03:52:22.198Z,100.00
2023-04-07T03:54:49.928Z,100.00
2023-04-07T03:57:17.759Z,100.00
2023-04-07T03:59:47.000Z,100.00
2023-04-07T04:02:16.444Z,100.00
2023-04-07T04:04:44.359Z,100.00
2023-04-07T04:07:12.090Z,100.00
2023-04-07T04:09:39.993Z,100.00
2023-04-07T04:12:08.154Z,100.00
2023-04-07T04:14:36.069Z,100.00
2023-04-07T04:17:05.526Z,100.00
2023-04-07T04:19:35.162Z,100.00
2023-04-07T04:22:02.931Z,100.00
2023-04-07T04:24:30.643Z,100.00
2023-04-07T04:26:58.350Z,100.00
2023-04-07T04:29:26.056Z,100.00
2023-04-07T04:31:53.852Z,100.00
2023-04-07T04:34:21.886Z,100.00
2023-04-07T04:36:51.014Z,100.00
2023-04-07T04:39:18.851Z,100.00
2023-04-07T04:41:46.581Z,100.00
2023-04-07T04:44:14.355Z,100.00
2023-04-07T04:46:42.191Z,100.00
2023-04-07T04:49:10.003Z,100.00
2023-04-07T04:51:37.772Z,100.00
2023-04-07T04:54:07.332Z,100.00
2023-04-07T04:56:35.277Z,100.00
2023-04-07T04:59:03.982Z,100.00
2023-04-07T05:01:33.495Z,100.00
2023-04-07T05:04:01.786Z,100.00
2023-04-07T05:06:29.596Z,100.00
2023-04-07T05:08:57.358Z,100.00
2023-04-07T05:11:26.664Z,100.00
2023-04-07T05:13:54.571Z,100.00
2023-04-07T05:16:22.725Z,100.00
2023-04-07T05:18:50.595Z,100.00
2023-04-07T05:21:20.201Z,100.00
2023-04-07T05:23:47.975Z,100.00
2023-04-07T05:26:15.771Z,100.00
2023-04-07T05:28:44.945Z,100.00
2023-04-07T05:31:12.715Z,100.00
2023-04-07T05:33:40.540Z,100.00
2023-04-07T05:36:08.895Z,100.00
2023-04-07T05:38:36.693Z,100.00
2023-04-07T05:41:04.468Z,100.00
2023-04-07T05:43:32.275Z,100.00
2023-04-07T05:46:01.477Z,100.00
2023-04-07T05:48:29.669Z,100.00
2023-04-07T05:50:57.506Z,100.00
2023-04-07T05:53:25.455Z,100.00
2023-04-07T05:55:53.259Z,100.00
2023-04-07T05:58:21.094Z,100.00
2023-04-07T06:00:48.864Z,100.00
2023-04-07T06:03:18.411Z,100.00
2023-04-07T06:05:47.238Z,100.00
2023-04-07T06:08:15.135Z,100.00
2023-04-07T06:10:44.230Z,100.00
2023-04-07T06:13:12.002Z,100.00
2023-04-07T06:15:39.734Z,100.00
2023-04-07T06:18:07.634Z,100.00
2023-04-07T06:20:36.825Z,100.00
2023-04-07T06:23:04.594Z,100.00
2023-04-07T06:25:32.348Z,100.00
2023-04-07T06:28:00.171Z,100.00
2023-04-07T06:30:28.010Z,100.00
2023-04-07T06:32:55.914Z,100.00
2023-04-07T06:35:26.699Z,100.00
2023-04-07T06:37:55.832Z,100.00
2023-04-07T06:40:23.646Z,100.00
2023-04-07T06:42:51.707Z,100.00
2023-04-07T06:45:19.472Z,100.00
2023-04-07T06:47:47.286Z,100.00
2023-04-07T06:50:15.050Z,100.00
2023-04-07T06:52:43.189Z,100.00
2023-04-07T06:55:12.531Z,100.00
2023-04-07T06:57:40.295Z,100.00
2023-04-07T07:00:09.324Z,100.00
2023-04-07T07:02:37.222Z,100.00
2023-04-07T07:05:05.822Z,100.00
2023-04-07T07:07:33.568Z,100.00
2023-04-07T07:10:01.379Z,100.00
2023-04-07T07:12:30.534Z,100.00
2023-04-07T07:14:58.318Z,100.00
2023-04-07T07:17:26.090Z,100.00
2023-04-07T07:19:53.881Z,100.00
2023-04-07T07:22:21.691Z,100.00
2023-04-07T07:24:49.447Z,100.00
2023-04-07T07:27:17.210Z,100.00
2023-04-07T07:29:46.333Z,100.00
2023-04-07T07:32:14.085Z,100.00
2023-04-07T07:34:41.951Z,100.00
2023-04-07T07:37:09.725Z,100.00
2023-04-07T07:39:37.521Z,100.00
2023-04-07T07:42:05.269Z,100.00
2023-04-07T07:44:32.992Z,100.00
2023-04-07T07:47:02.359Z,100.00
2023-04-07T07:49:30.260Z,100.00
2023-04-07T07:51:59.678Z,99.12
2023-04-07T07:54:27.582Z,99.30
2023-04-07T07:56:55.313Z,99.25
2023-04-07T07:59:23.154Z,99.37
2023-04-07T08:01:51.071Z,99.48
2023-04-07T08:04:20.882Z,99.38
2023-04-07T08:06:48.722Z,98.81
2023-04-07T08:09:16.506Z,98.36
2023-04-07T08:11:44.413Z,98.88
2023-04-07T08:14:12.276Z,98.31
2023-04-07T08:16:40.115Z,98.92
2023-04-07T08:19:07.959Z,98.92
2023-04-07T08:21:37.517Z,99.61
2023-04-07T08:24:05.642Z,98.67
2023-04-07T08:26:33.882Z,99.02
2023-04-07T08:29:01.619Z,98.67
2023-04-07T08:31:29.608Z,98.53
2023-04-07T08:33:59.037Z,99.13
2023-04-07T08:36:28.024Z,99.54
2023-04-07T08:38:58.632Z,97.61
2023-04-07T08:41:34.572Z,97.04
2023-04-07T08:44:02.871Z,97.40
2023-04-07T08:46:31.723Z,97.33
2023-04-07T08:49:00.300Z,96.67
2023-04-07T08:51:30.079Z,96.78
2023-04-07T08:54:07.371Z,96.65
2023-04-07T08:56:35.526Z,96.04
2023-04-07T08:59:03.676Z,96.01
2023-04-07T09:01:32.237Z,95.48
2023-04-07T09:04:01.035Z,94.42
2023-04-07T09:06:29.002Z,94.26
2023-04-07T09:08:56.765Z,93.41
2023-04-07T09:11:27.294Z,93.42
2023-04-07T09:13:56.080Z,93.38
2023-04-07T09:16:24.923Z,93.17
2023-04-07T09:18:54.090Z,93.36
2023-04-07T09:21:21.876Z,92.96
2023-04-07T09:23:49.916Z,93.01
2023-04-07T09:26:24.458Z,92.42
2023-04-07T09:28:55.778Z,92.95
2023-04-07T09:31:26.313Z,92.58
2023-04-07T09:33:54.451Z,92.60
2023-04-07T09:36:22.227Z,92.69
2023-04-07T09:38:50.017Z,92.34
2023-04-07T09:41:18.319Z,92.33
2023-04-07T09:43:48.386Z,93.35
2023-04-07T09:46:19.049Z,93.18
2023-04-07T09:48:48.581Z,93.76
2023-04-07T09:51:18.406Z,93.63
2023-04-07T09:53:48.728Z,94.32
2023-04-07T09:56:18.012Z,95.00
2023-04-07T09:58:47.910Z,94.52
2023-04-07T10:01:18.152Z,93.96
2023-04-07T10:03:48.129Z,93.84
2023-04-07T10:06:16.955Z,93.41
2023-04-07T10:08:45.126Z,92.42
2023-04-07T10:11:12.840Z,93.41
2023-04-07T10:13:41.461Z,93.89
2023-04-07T10:16:09.727Z,91.77
2023-04-07T10:18:40.935Z,91.25
2023-04-07T10:21:10.724Z,90.66
2023-04-07T10:23:50.323Z,90.69
2023-04-07T10:26:20.896Z,90.95
2023-04-07T10:28:54.767Z,90.42
2023-04-07T10:31:24.041Z,90.50
2023-04-07T10:33:56.404Z,91.20
2023-04-07T10:36:24.373Z,91.35
2023-04-07T10:39:24.128Z,91.24
2023-04-07T10:41:53.255Z,90.75
2023-04-07T10:44:46.682Z,90.20
2023-04-07T10:47:14.640Z,90.07
2023-04-07T10:50:16.723Z,90.08
2023-04-07T10:52:44.670Z,90.36
2023-04-07T10:55:32.774Z,89.51
2023-04-07T10:58:23.141Z,88.43
2023-04-07T11:01:20.735Z,90.16
2023-04-07T11:04:01.558Z,89.46
2023-04-07T11:06:31.489Z,89.74
2023-04-07T11:08:59.262Z,90.44
2023-04-07T11:11:39.477Z,90.10
2023-04-07T11:14:07.844Z,90.04
2023-04-07T11:16:43.346Z,91.48
2023-04-07T11:19:11.364Z,92.33
2023-04-07T11:21:40.689Z,91.54
2023-04-07T11:24:08.465Z,90.44
2023-04-07T11:26:40.766Z,90.23
2023-04-07T11:29:09.083Z,89.33
2023-04-07T11:31:37.970Z,90.04
2023-04-07T11:34:06.779Z,90.42
2023-04-07T11:36:39.083Z,89.70
2023-04-07T11:39:19.915Z,88.48
2023-04-07T11:41:49.077Z,88.92
2023-04-07T11:44:16.845Z,89.10
2023-04-07T11:46:54.665Z,89.43
2023-04-07T11:49:23.615Z,89.28
2023-04-07T11:51:59.281Z,90.94
2023-04-07T11:54:28.439Z,91.33
2023-04-07T11:56:56.254Z,91.28
2023-04-07T11:59:25.369Z,92.09
2023-04-07T12:01:56.990Z,92.06
2023-04-07T12:04:25.657Z,92.80
2023-04-07T12:06:53.599Z,91.63
2023-04-07T12:09:36.185Z,91.45
2023-04-07T12:12:05.735Z,92.22
2023-04-07T12:14:33.921Z,92.77
2023-04-07T12:17:03.661Z,92.93
2023-04-07T12:19:34.871Z,93.00
2023-04-07T12:22:02.650Z,93.32
2023-04-07T12:24:32.287Z,92.67
2023-04-07T12:27:02.455Z,92.64
2023-04-07T12:29:30.290Z,92.61
2023-04-07T12:31:58.582Z,93.07
2023-04-07T12:34:27.183Z,92.91
2023-04-07T12:36:55.061Z,92.69
2023-04-07T12:39:23.024Z,91.51
2023-04-07T12:41:53.170Z,91.29
2023-04-07T12:44:22.420Z,90.26
2023-04-07T12:46:50.197Z,89.73
2023-04-07T12:49:17.983Z,90.19
2023-04-07T12:51:46.028Z,89.63
2023-04-07T12:54:13.761Z,88.94
2023-04-07T12:56:42.254Z,89.21
2023-04-07T12:59:10.001Z,88.62
2023-04-07T13:01:39.545Z,88.88
2023-04-07T13:04:07.761Z,88.26
2023-04-07T13:06:35.698Z,88.11
2023-04-07T13:09:03.759Z,87.43
2023-04-07T13:11:31.504Z,86.85
2023-04-07T13:14:01.112Z,87.17
2023-04-07T13:16:29.504Z,87.07
2023-04-07T13:18:58.678Z,86.81
2023-04-07T13:21:45.417Z,87.07
2023-04-07T13:24:15.044Z,87.31
2023-04-07T13:26:42.865Z,88.04
2023-04-07T13:29:10.669Z,88.07
2023-04-07T13:31:38.432Z,87.78
2023-04-07T13:34:07.695Z,87.33
2023-04-07T13:36:35.446Z,86.82
2023-04-07T13:39:03.389Z,87.33
2023-04-07T13:41:31.751Z,86.73
2023-04-07T13:43:59.550Z,87.00
2023-04-07T13:46:29.160Z,87.32
2023-04-07T13:48:57.309Z,87.38
2023-04-07T13:51:27.505Z,87.30
2023-04-07T13:53:55.251Z,87.35
2023-04-07T13:56:23.805Z,87.65
2023-04-07T13:58:51.810Z,87.34
2023-04-07T14:01:19.648Z,86.94
2023-04-07T14:03:47.876Z,86.30
2023-04-07T14:06:16.270Z,87.05
2023-04-07T14:08:45.374Z,87.57
2023-04-07T14:11:13.072Z,87.77
2023-04-07T14:13:40.815Z,87.92
2023-04-07T14:16:09.360Z,87.31
2023-04-07T14:18:37.213Z,87.64
2023-04-07T14:21:05.270Z,87.98
2023-04-07T14:23:37.166Z,87.62
2023-04-07T14:26:10.438Z,87.72
2023-04-07T14:28:38.252Z,88.52
2023-04-07T14:31:06.225Z,89.12
2023-04-07T14:33:34.073Z,89.42
2023-04-07T14:36:02.007Z,88.15
2023-04-07T14:38:29.789Z,88.92
2023-04-07T14:41:09.510Z,89.44
2023-04-07T14:43:39.762Z,90.04
2023-04-07T14:46:08.701Z,89.85
2023-04-07T14:48:36.645Z,89.54
2023-04-07T14:51:09.830Z,88.41
2023-04-07T14:53:37.855Z,88.94
2023-04-07T14:56:05.912Z,89.05
2023-04-07T14:58:33.779Z,89.21
2023-04-07T15:01:05.629Z,88.60
2023-04-07T15:03:34.826Z,88.08
2023-04-07T15:06:02.856Z,88.26
2023-04-07T15:08:30.659Z,88.35
2023-04-07T15:10:58.841Z,88.05
2023-04-07T15:13:26.543Z,88.34
2023-04-07T15:15:54.311Z,88.43
2023-04-07T15:18:23.518Z,88.65
2023-04-07T15:20:51.379Z,88.43
2023-04-07T15:23:19.127Z,88.19
2023-04-07T15:25:50.098Z,88.63
2023-04-07T15:28:17.827Z,88.58
2023-04-07T15:30:47.339Z,88.84
2023-04-07T15:33:15.705Z,88.53
2023-04-07T15:35:45.575Z,88.56
2023-04-07T15:38:13.424Z,89.39
2023-04-07T15:40:42.648Z,89.43
2023-04-07T15:43:11.519Z,89.14
2023-04-07T15:45:43.434Z,88.58
2023-04-07T15:48:11.830Z,88.27
2023-04-07T15:50:39.736Z,88.36
2023-04-07T15:53:08.960Z,88.42
2023-04-07T15:55:37.589Z,88.30
2023-04-07T15:58:05.631Z,88.21
2023-04-07T16:00:35.655Z,88.70
2023-04-07T16:03:04.026Z,88.44
2023-04-07T16:05:32.336Z,89.01
2023-04-07T16:08:00.196Z,89.39
2023-04-07T16:10:29.277Z,89.30
2023-04-07T16:12:57.098Z,89.32
2023-04-07T16:15:36.846Z,89.57
2023-04-07T16:18:08.386Z,89.19
2023-04-07T16:20:36.191Z,89.96
2023-04-07T16:23:04.047Z,89.94
2023-04-07T16:25:33.307Z,90.05
2023-04-07T16:28:01.081Z,90.37
2023-04-07T16:30:28.835Z,90.50
2023-04-07T16:32:56.625Z,91.22
2023-04-07T16:35:24.391Z,91.36
2023-04-07T16:37:54.720Z,91.75
2023-04-07T16:40:22.540Z,91.30
2023-04-07T16:42:51.660Z,91.78
2023-04-07T16:45:19.507Z,91.67
2023-04-07T16:47:47.275Z,91.20
2023-04-07T16:50:15.211Z,91.16
2023-04-07T16:52:42.965Z,91.80
2023-04-07T16:55:10.892Z,91.30
2023-04-07T16:57:38.624Z,91.56
2023-04-07T17:00:10.874Z,91.68
2023-04-07T17:02:38.920Z,92.26
2023-04-07T17:05:07.878Z,92.37
2023-04-07T17:07:35.688Z,92.12
2023-04-07T17:10:03.911Z,92.33
2023-04-07T17:12:31.756Z,92.42
2023-04-07T17:14:59.500Z,91.90
2023-04-07T17:17:28.695Z,91.92
2023-04-07T17:19:57.636Z,91.47
2023-04-07T17:22:25.390Z,92.24
2023-04-07T17:24:53.186Z,91.66
2023-04-07T17:27:20.937Z,91.61
2023-04-07T17:29:48.682Z,91.29
2023-04-07T17:32:16.406Z,91.41
2023-04-07T17:34:45.530Z,91.45
2023-04-07T17:37:13.270Z,91.71
2023-04-07T17:39:41.023Z,91.92
2023-04-07T17:42:10.878Z,91.96
2023-04-07T17:44:38.617Z,92.13
2023-04-07T17:47:07.780Z,92.81
2023-04-07T17:49:35.560Z,93.23
2023-04-07T17:52:04.668Z,92.88
2023-04-07T17:54:32.451Z,93.37
2023-04-07T17:57:01.019Z,93.52
2023-04-07T17:59:28.823Z,93.47
2023-04-07T18:01:56.928Z,93.63
2023-04-07T18:04:26.252Z,94.15
2023-04-07T18:06:54.654Z,94.73
2023-04-07T18:09:23.791Z,94.74
2023-04-07T18:11:51.576Z,96.08
2023-04-07T18:14:19.335Z,96.44
2023-04-07T18:16:47.073Z,97.09
2023-04-07T18:19:14.874Z,96.80
2023-04-07T18:21:42.727Z,96.68
2023-04-07T18:24:10.477Z,96.65
2023-04-07T18:26:39.634Z,96.27
2023-04-07T18:29:10.039Z,96.48
2023-04-07T18:31:38.187Z,96.33
2023-04-07T18:34:06.102Z,96.66
2023-04-07T18:40:14.628Z,95.97
2023-04-07T18:42:43.738Z,96.64
2023-04-07T18:45:11.895Z,96.82
2023-04-07T18:47:39.682Z,96.67
2023-04-07T18:50:08.578Z,96.78
2023-04-07T18:52:36.401Z,97.28
2023-04-07T18:55:04.427Z,96.88
2023-04-07T18:57:32.267Z,97.23
2023-04-07T19:00:01.434Z,97.31
2023-04-07T19:02:29.271Z,97.37
2023-04-07T19:04:57.121Z,97.62
2023-04-07T19:07:24.974Z,97.96
2023-04-07T19:09:53.833Z,97.79
2023-04-07T19:12:22.283Z,98.33
2023-04-07T19:14:50.047Z,98.08
2023-04-07T19:17:19.211Z,97.84
2023-04-07T19:19:47.074Z,98.52
2023-04-07T19:22:14.771Z,98.25
2023-04-07T19:24:42.573Z,98.51
2023-04-07T19:27:12.087Z,98.33
2023-04-07T19:29:39.784Z,99.03
2023-04-07T19:32:07.763Z,98.99
2023-04-07T19:34:36.965Z,99.25
2023-04-07T19:37:04.756Z,99.44
2023-04-07T19:39:32.530Z,99.74
2023-04-07T19:42:01.063Z,100.00
2023-04-07T19:44:28.854Z,100.00
2023-04-07T19:46:56.603Z,100.00
2023-04-07T19:49:24.415Z,100.00
2023-04-07T19:51:54.490Z,100.00
2023-04-07T19:54:22.898Z,100.00
2023-04-07T19:56:50.618Z,100.00
2023-04-07T19:59:18.391Z,100.00
2023-04-07T20:01:46.382Z,100.00
2023-04-07T20:04:14.216Z,100.00
2023-04-07T20:06:42.012Z,100.00
2023-04-07T20:09:11.418Z,100.00
2023-04-07T20:11:39.240Z,100.00
2023-04-07T20:14:07.014Z,100.00
2023-04-07T20:16:34.898Z,100.00
2023-04-07T20:19:04.108Z,100.00
2023-04-07T20:21:33.379Z,100.00
2023-04-07T20:24:01.356Z,100.00
2023-04-07T20:26:30.637Z,100.00
2023-04-07T20:28:58.422Z,100.00
2023-04-07T20:31:26.257Z,100.00
2023-04-07T20:33:54.053Z,100.00
2023-04-07T20:36:21.910Z,100.00
2023-04-07T20:38:49.940Z,100.00
2023-04-07T20:41:18.079Z,100.00
2023-04-07T20:43:47.279Z,100.00
2023-04-07T20:46:15.134Z,100.00
2023-04-07T20:48:43.171Z,100.00
2023-04-07T20:51:11.098Z,100.00
2023-04-07T20:53:38.847Z,100.00
2023-04-07T20:56:06.885Z,100.00
2023-04-07T20:58:34.730Z,100.00
2023-04-07T21:01:04.010Z,100.00
2023-04-07T21:03:31.914Z,100.00
2023-04-07T21:05:59.853Z,100.00
2023-04-07T21:08:27.840Z,100.00
2023-04-07T21:10:55.869Z,100.00
2023-04-07T21:13:25.945Z,100.00
2023-04-07T21:15:53.918Z,100.00
2023-04-07T21:18:23.083Z,100.00
2023-04-07T21:20:50.934Z,100.00
2023-04-07T21:23:19.516Z,100.00
2023-04-07T21:25:47.558Z,100.00
2023-04-07T21:28:15.700Z,100.00
2023-04-07T21:30:43.638Z,100.00
2023-04-07T21:33:12.391Z,100.00
2023-04-07T21:35:41.704Z,100.00
2023-04-07T21:38:09.494Z,100.00
2023-04-07T21:40:37.255Z,100.00
2023-04-07T21:43:05.028Z,100.00
2023-04-07T21:45:32.836Z,100.00
2023-04-07T21:48:00.590Z,100.00
2023-04-07T21:50:28.373Z,100.00
2023-04-07T21:52:57.486Z,100.00
2023-04-07T21:55:25.293Z,100.00
2023-04-07T21:57:53.120Z,100.00
2023-04-07T22:00:21.756Z,100.00
2023-04-07T22:02:49.890Z,100.00
2023-04-07T22:05:18.075Z,100.00
2023-04-07T22:07:46.814Z,100.00
2023-04-07T22:10:16.063Z,100.00
2023-04-07T22:12:43.846Z,100.00
2023-04-07T22:15:13.098Z,100.00
2023-04-07T22:17:41.391Z,100.00
2023-04-07T22:20:11.265Z,100.00
2023-04-07T22:22:39.605Z,100.00
2023-04-07T22:25:08.008Z,100.00
2023-04-07T22:27:37.113Z,100.00
2023-04-07T22:30:05.335Z,100.00
2023-04-07T22:32:33.108Z,100.00
2023-04-07T22:35:00.929Z,100.00
2023-04-07T22:37:28.770Z,100.00
2023-04-07T22:39:56.502Z,100.00
2023-04-07T22:42:24.242Z,100.00
2023-04-07T22:44:53.365Z,100.00
2023-04-07T22:47:22.344Z,100.00
2023-04-07T22:49:50.135Z,100.00
2023-04-07T22:52:17.828Z,100.00
2023-04-07T22:54:45.910Z,100.00
2023-04-07T22:57:13.649Z,100.00
2023-04-07T22:59:41.498Z,100.00
2023-04-07T23:02:10.757Z,100.00
2023-04-07T23:04:38.508Z,100.00
2023-04-07T23:07:06.334Z,100.00
2023-04-07T23:09:34.214Z,100.00
2023-04-07T23:12:02.475Z,100.00
2023-04-07T23:14:30.256Z,100.00
2023-04-07T23:16:58.061Z,100.00
2023-04-07T23:19:27.198Z,100.00
2023-04-07T23:21:54.978Z,100.00
2023-04-07T23:24:22.674Z,100.00
2023-04-07T23:26:50.427Z,100.00
2023-04-07T23:29:18.165Z,100.00
2023-04-07T23:31:45.912Z,100.00
2023-04-07T23:34:13.669Z,100.00
2023-04-07T23:36:42.808Z,100.00
2023-04-07T23:39:10.566Z,100.00
2023-04-07T23:41:38.323Z,100.00
2023-04-07T23:44:06.966Z,100.00
2023-04-07T23:46:34.852Z,100.00
2023-04-07T23:49:02.832Z,100.00
2023-04-07T23:51:30.651Z,100.00
2023-04-07T23:53:59.865Z,100.00
2023-04-07T23:56:28.929Z,100.00
2023-04-07T23:58:56.818Z,100.00
